createdAt,value
2022-11-26T00:00:32.812Z,12.60
2022-11-26T00:01:36.879Z,11.80
2022-11-26T00:02:40.729Z,12.38
2022-11-26T00:03:45.325Z,12.43
2022-11-26T00:04:50.302Z,11.13
2022-11-26T00:05:56.849Z,12.82
2022-11-26T00:07:00.529Z,12.00
2022-11-26T00:08:06.044Z,12.88
2022-11-26T00:09:25.053Z,10.45
2022-11-26T00:10:35.902Z,12.63
2022-11-26T00:11:40.179Z,12.20
2022-11-26T00:12:43.751Z,12.18
2022-11-26T00:13:47.249Z,10.75
2022-11-26T00:14:51.080Z,12.80
2022-11-26T00:15:56.518Z,12.20
2022-11-26T00:17:00.052Z,12.07
2022-11-26T00:18:03.727Z,14.13
2022-11-26T00:19:11.646Z,12.52
2022-11-26T00:20:16.397Z,10.88
2022-11-26T00:21:26.681Z,11.88
2022-11-26T00:22:41.325Z,10.80
2022-11-26T00:23:45.274Z,13.93
2022-11-26T00:24:50.581Z,10.88
2022-11-26T00:26:03.859Z,14.73
2022-11-26T00:27:13.035Z,9.95
2022-11-26T00:28:34.623Z,12.15
2022-11-26T00:29:38.372Z,11.13
2022-11-26T00:30:42.214Z,13.95
2022-11-26T00:31:46.113Z,11.98
2022-11-26T00:32:50.074Z,14.57
2022-11-26T00:33:53.941Z,12.77
2022-11-26T00:34:57.700Z,12.90
2022-11-26T00:36:19.618Z,13.05
2022-11-26T00:37:31.355Z,12.68
2022-11-26T00:38:35.866Z,12.30
2022-11-26T00:39:39.334Z,12.18
2022-11-26T00:40:43.165Z,12.23
2022-11-26T00:41:51.365Z,11.60
2022-11-26T00:43:01.252Z,14.27
2022-11-26T00:44:32.645Z,11.90
2022-11-26T00:45:36.455Z,11.70
2022-11-26T00:46:40.378Z,14.30
2022-11-26T00:47:44.407Z,12.82
2022-11-26T00:48:48.664Z,12.25
2022-11-26T00:49:52.306Z,13.27
2022-11-26T00:50:56.088Z,10.40
2022-11-26T00:51:59.758Z,13.20
2022-11-26T00:53:08.867Z,9.80
2022-11-26T00:54:24.818Z,11.45
2022-11-26T00:55:56.341Z,10.35
2022-11-26T00:57:01.055Z,12.20
2022-11-26T00:58:15.521Z,10.93
2022-11-26T00:59:24.067Z,14.15
2022-11-26T01:00:33.952Z,10.85
2022-11-26T01:01:39.136Z,9.95
2022-11-26T01:02:43.524Z,10.75
2022-11-26T01:03:49.116Z,11.05
2022-11-26T01:04:52.981Z,11.23
2022-11-26T01:06:00.689Z,11.63
2022-11-26T01:07:04.566Z,10.05
2022-11-26T01:08:25.017Z,11.38
2022-11-26T01:09:28.629Z,11.45
2022-11-26T01:10:32.760Z,10.75
2022-11-26T01:11:36.913Z,8.90
2022-11-26T01:12:40.352Z,10.05
2022-11-26T01:13:46.857Z,9.77
2022-11-26T01:14:50.745Z,11.20
2022-11-26T01:16:01.837Z,9.57
2022-11-26T01:17:11.140Z,9.23
2022-11-26T01:18:19.708Z,9.40
2022-11-26T01:19:23.461Z,8.43
2022-11-26T01:20:31.852Z,9.85
2022-11-26T01:21:35.500Z,9.30
2022-11-26T01:22:39.194Z,9.40
2022-11-26T01:23:43.330Z,8.85
2022-11-26T01:24:47.400Z,11.48
2022-11-26T01:25:51.353Z,10.82
2022-11-26T01:26:55.083Z,10.60
2022-11-26T01:27:58.459Z,10.65
2022-11-26T01:29:01.995Z,9.68
2022-11-26T01:30:30.953Z,9.50
2022-11-26T01:31:34.634Z,10.00
2022-11-26T01:32:38.126Z,10.13
2022-11-26T01:33:41.733Z,9.45
2022-11-26T01:34:45.563Z,10.05
2022-11-26T01:35:49.265Z,10.48
2022-11-26T01:36:52.978Z,8.85
2022-11-26T01:37:56.909Z,8.88
2022-11-26T01:39:10.928Z,8.00
2022-11-26T01:40:26.709Z,11.48
2022-11-26T01:42:08.513Z,10.05
2022-11-26T01:43:41.175Z,10.48
2022-11-26T01:44:44.971Z,9.90
2022-11-26T01:45:48.666Z,10.30
2022-11-26T01:46:53.793Z,10.43
2022-11-26T01:47:57.480Z,9.32
2022-11-26T01:49:34.290Z,10.05
2022-11-26T01:50:54.085Z,9.48
2022-11-26T01:52:18.610Z,10.82
2022-11-26T01:53:43.174Z,8.75
2022-11-26T01:54:49.168Z,10.30
2022-11-26T01:56:00.183Z,10.65
2022-11-26T01:57:29.853Z,8.77
2022-11-26T01:58:45.998Z,9.10
2022-11-26T01:59:57.041Z,9.13
2022-11-26T02:01:01.132Z,10.35
2022-11-26T02:02:11.241Z,10.23
2022-11-26T02:03:15.337Z,9.50
2022-11-26T02:04:33.541Z,9.63
2022-11-26T02:06:08.705Z,10.68
2022-11-26T02:07:12.776Z,11.85
2022-11-26T02:08:16.512Z,10.38
2022-11-26T02:09:20.440Z,9.43
2022-11-26T02:10:24.954Z,11.18
2022-11-26T02:11:28.653Z,10.68
2022-11-26T02:12:32.821Z,10.68
2022-11-26T02:13:36.514Z,11.48
2022-11-26T02:14:44.153Z,10.63
2022-11-26T02:16:29.551Z,11.80
2022-11-26T02:17:49.174Z,12.85
2022-11-26T02:19:40.844Z,11.50
2022-11-26T02:21:01.791Z,10.23
2022-11-26T02:22:28.276Z,11.07
2022-11-26T02:24:29.007Z,11.00
2022-11-26T02:26:13.012Z,10.30
2022-11-26T02:28:12.235Z,11.77
2022-11-26T02:29:25.458Z,9.18
2022-11-26T02:30:38.983Z,12.80
2022-11-26T02:32:03.960Z,11.85
2022-11-26T02:33:35.439Z,11.70
2022-11-26T02:34:54.952Z,13.65
2022-11-26T02:36:25.297Z,12.70
2022-11-26T02:37:37.208Z,11.20
2022-11-26T02:38:41.719Z,12.25
2022-11-26T02:39:46.961Z,12.18
2022-11-26T02:40:52.477Z,11.45
2022-11-26T02:42:04.262Z,11.10
2022-11-26T02:43:10.339Z,11.50
2022-11-26T02:44:19.011Z,10.75
2022-11-26T02:45:42.726Z,13.40
2022-11-26T02:46:51.788Z,11.07
2022-11-26T02:48:02.996Z,10.35
2022-11-26T02:49:17.887Z,12.02
2022-11-26T02:50:57.253Z,10.77
2022-11-26T02:52:04.945Z,10.25
2022-11-26T02:53:16.527Z,11.80
2022-11-26T02:54:24.530Z,11.32
2022-11-26T02:55:41.147Z,10.80
2022-11-26T02:56:45.164Z,11.48
2022-11-26T02:57:52.246Z,11.20
2022-11-26T02:58:57.945Z,11.80
2022-11-26T03:00:01.761Z,10.40
2022-11-26T03:01:29.639Z,11.63
2022-11-26T03:02:50.206Z,11.30
2022-11-26T03:03:58.606Z,12.10
2022-11-26T03:05:04.043Z,10.95
2022-11-26T03:06:15.655Z,8.55
2022-11-26T03:07:20.118Z,12.75
2022-11-26T03:08:26.583Z,10.55
2022-11-26T03:10:00.734Z,11.45
2022-11-26T03:11:07.557Z,8.98
2022-11-26T03:12:13.155Z,11.32
2022-11-26T03:13:17.802Z,12.63
2022-11-26T03:14:21.432Z,10.82
2022-11-26T03:15:25.389Z,12.65
2022-11-26T03:16:30.323Z,10.98
2022-11-26T03:17:34.296Z,11.93
2022-11-26T03:18:38.048Z,11.75
2022-11-26T03:19:41.946Z,10.85
2022-11-26T03:20:45.616Z,9.52
2022-11-26T03:21:49.308Z,9.13
2022-11-26T03:22:52.917Z,10.95
2022-11-26T03:23:56.989Z,11.77
2022-11-26T03:25:00.617Z,11.98
2022-11-26T03:26:05.058Z,11.30
2022-11-26T03:27:11.400Z,10.70
2022-11-26T03:28:15.336Z,12.10
2022-11-26T03:29:18.938Z,11.05
2022-11-26T03:30:22.807Z,9.23
2022-11-26T03:31:26.330Z,9.77
2022-11-26T03:32:30.190Z,9.40
2022-11-26T03:33:34.118Z,11.00
2022-11-26T03:34:37.889Z,10.38
2022-11-26T03:35:41.809Z,10.43
2022-11-26T03:36:45.602Z,12.63
2022-11-26T03:37:49.295Z,11.35
2022-11-26T03:38:52.932Z,13.05
2022-11-26T03:39:56.476Z,12.07
2022-11-26T03:41:04.264Z,12.20
2022-11-26T03:42:13.594Z,12.38
2022-11-26T03:43:17.639Z,11.82
2022-11-26T03:44:22.051Z,11.20
2022-11-26T03:45:25.643Z,10.15
2022-11-26T03:46:29.305Z,10.38
2022-11-26T03:47:32.832Z,10.75
2022-11-26T03:48:36.772Z,11.20
2022-11-26T03:49:40.426Z,9.88
2022-11-26T03:50:44.362Z,12.75
2022-11-26T03:51:47.955Z,9.77
2022-11-26T03:52:51.834Z,11.38
2022-11-26T03:53:55.791Z,11.13
2022-11-26T03:54:59.961Z,10.73
2022-11-26T03:56:03.669Z,10.95
2022-11-26T03:57:12.771Z,11.82
2022-11-26T03:58:16.831Z,11.98
2022-11-26T03:59:20.427Z,10.95
2022-11-26T04:00:24.890Z,10.40
2022-11-26T04:01:28.823Z,10.50
2022-11-26T04:02:36.111Z,11.43
2022-11-26T04:03:43.171Z,13.32
2022-11-26T04:04:46.922Z,9.95
2022-11-26T04:05:50.515Z,8.85
2022-11-26T04:06:54.003Z,9.85
2022-11-26T04:07:58.112Z,9.95
2022-11-26T04:09:01.646Z,10.90
2022-11-26T04:10:10.198Z,9.75
2022-11-26T04:11:14.746Z,11.05
2022-11-26T04:12:19.276Z,9.55
2022-11-26T04:13:23.281Z,8.20
2022-11-26T04:14:26.760Z,9.90
2022-11-26T04:15:30.255Z,9.63
2022-11-26T04:16:33.719Z,11.55
2022-11-26T04:17:37.080Z,9.52
2022-11-26T04:18:41.405Z,9.18
2022-11-26T04:19:44.817Z,9.95
2022-11-26T04:20:52.735Z,9.32
2022-11-26T04:21:57.170Z,8.90
2022-11-26T04:23:00.587Z,9.50
2022-11-26T04:24:04.611Z,9.80
2022-11-26T04:25:12.313Z,8.63
2022-11-26T04:26:16.050Z,9.02
2022-11-26T04:27:19.783Z,8.98
2022-11-26T04:28:24.522Z,9.95
2022-11-26T04:29:28.817Z,8.82
2022-11-26T04:30:32.787Z,9.13
2022-11-26T04:31:36.275Z,10.43
2022-11-26T04:32:40.348Z,9.70
2022-11-26T04:33:44.395Z,9.65
2022-11-26T04:34:47.942Z,9.93
2022-11-26T04:35:51.916Z,9.00
2022-11-26T04:36:55.598Z,9.35
2022-11-26T04:37:59.254Z,9.18
2022-11-26T04:39:03.025Z,10.73
2022-11-26T04:40:12.398Z,9.95
2022-11-26T04:41:16.066Z,9.25
2022-11-26T04:42:20.570Z,8.52
2022-11-26T04:43:24.885Z,8.80
2022-11-26T04:44:29.086Z,9.73
2022-11-26T04:45:32.935Z,9.70
2022-11-26T04:46:36.496Z,11.02
2022-11-26T04:47:42.877Z,10.68
2022-11-26T04:48:46.883Z,9.73
2022-11-26T04:49:50.367Z,10.35
2022-11-26T04:50:54.335Z,10.38
2022-11-26T04:51:58.022Z,8.52
2022-11-26T04:53:01.663Z,10.70
2022-11-26T04:54:12.766Z,10.85
2022-11-26T04:55:18.869Z,9.35
2022-11-26T04:56:22.419Z,11.40
2022-11-26T04:57:26.650Z,10.23
2022-11-26T04:58:30.292Z,9.10
2022-11-26T04:59:33.751Z,10.82
2022-11-26T05:00:37.646Z,10.40
2022-11-26T05:01:41.341Z,12.50
2022-11-26T05:02:45.566Z,11.50
2022-11-26T05:03:49.688Z,10.95
2022-11-26T05:04:53.518Z,11.68
2022-11-26T05:05:57.275Z,11.88
2022-11-26T05:07:01.075Z,13.88
2022-11-26T05:08:07.489Z,11.65
2022-11-26T05:09:12.859Z,12.45
2022-11-26T05:10:16.665Z,12.85
2022-11-26T05:11:20.261Z,13.27
2022-11-26T05:12:24.818Z,12.98
2022-11-26T05:13:31.547Z,12.88
2022-11-26T05:14:35.117Z,12.45
2022-11-26T05:15:39.111Z,10.82
2022-11-26T05:16:42.621Z,10.90
2022-11-26T05:17:46.606Z,10.15
2022-11-26T05:18:50.194Z,10.00
2022-11-26T05:19:53.779Z,11.45
2022-11-26T05:20:57.216Z,11.35
2022-11-26T05:22:00.822Z,10.30
2022-11-26T05:23:04.973Z,11.00
2022-11-26T05:24:12.868Z,11.43
2022-11-26T05:25:16.328Z,11.07
2022-11-26T05:26:20.143Z,13.25
2022-11-26T05:27:23.784Z,10.35
2022-11-26T05:28:27.584Z,9.98
2022-11-26T05:29:32.866Z,11.95
2022-11-26T05:30:37.679Z,10.23
2022-11-26T05:31:41.271Z,11.10
2022-11-26T05:32:45.085Z,11.60
2022-11-26T05:33:48.826Z,11.52
2022-11-26T05:34:55.697Z,11.73
2022-11-26T05:36:03.621Z,10.18
2022-11-26T05:37:14.143Z,10.73
2022-11-26T05:38:17.626Z,12.05
2022-11-26T05:39:22.230Z,9.43
2022-11-26T05:40:25.662Z,10.75
2022-11-26T05:41:29.358Z,12.15
2022-11-26T05:42:32.979Z,11.07
2022-11-26T05:43:36.518Z,9.60
2022-11-26T05:44:40.978Z,11.25
2022-11-26T05:45:44.759Z,12.68
2022-11-26T05:46:48.461Z,11.98
2022-11-26T05:47:51.936Z,12.00
2022-11-26T05:48:55.405Z,11.65
2022-11-26T05:49:58.924Z,12.77
2022-11-26T05:51:03.582Z,11.27
2022-11-26T05:52:17.230Z,11.05
2022-11-26T05:53:20.838Z,12.38
2022-11-26T05:54:28.539Z,13.90
2022-11-26T05:55:32.254Z,11.88
2022-11-26T05:56:36.148Z,12.00
2022-11-26T05:57:39.705Z,12.02
2022-11-26T05:58:43.748Z,12.00
2022-11-26T05:59:49.291Z,10.88
2022-11-26T06:00:53.322Z,11.95
2022-11-26T06:01:57.219Z,14.65
2022-11-26T06:03:00.826Z,11.82
2022-11-26T06:04:04.958Z,13.93
2022-11-26T06:05:12.514Z,13.15
2022-11-26T06:06:16.926Z,10.52
2022-11-26T06:07:20.488Z,11.68
2022-11-26T06:08:23.886Z,12.20
2022-11-26T06:09:27.349Z,13.20
2022-11-26T06:10:30.725Z,11.10
2022-11-26T06:11:34.291Z,11.10
2022-11-26T06:12:37.745Z,11.40
2022-11-26T06:13:41.492Z,13.20
2022-11-26T06:14:45.402Z,10.93
2022-11-26T06:15:49.011Z,11.50
2022-11-26T06:16:52.613Z,10.50
2022-11-26T06:17:56.218Z,12.60
2022-11-26T06:19:00.049Z,13.55
2022-11-26T06:20:05.963Z,11.45
2022-11-26T06:21:11.777Z,11.18
2022-11-26T06:22:15.661Z,11.70
2022-11-26T06:23:21.191Z,12.57
2022-11-26T06:24:25.004Z,12.52
2022-11-26T06:25:29.222Z,11.88
2022-11-26T06:26:32.756Z,12.23
2022-11-26T06:27:37.486Z,12.20
2022-11-26T06:28:40.995Z,11.70
2022-11-26T06:29:45.177Z,11.70
2022-11-26T06:30:48.731Z,12.02
2022-11-26T06:31:52.290Z,14.25
2022-11-26T06:32:56.036Z,11.93
2022-11-26T06:34:00.273Z,12.13
2022-11-26T06:35:04.622Z,10.38
2022-11-26T06:36:11.221Z,11.77
2022-11-26T06:37:14.625Z,11.63
2022-11-26T06:38:18.296Z,9.57
2022-11-26T06:39:21.680Z,10.38
2022-11-26T06:40:25.532Z,11.60
2022-11-26T06:41:29.116Z,11.48
2022-11-26T06:42:32.521Z,10.90
2022-11-26T06:43:36.838Z,11.95
2022-11-26T06:44:40.524Z,11.23
2022-11-26T06:45:44.103Z,10.20
2022-11-26T06:46:47.690Z,13.05
2022-11-26T06:47:52.643Z,10.40
2022-11-26T06:49:01.614Z,10.60
2022-11-26T06:50:13.439Z,9.30
2022-11-26T06:51:17.601Z,11.77
2022-11-26T06:52:21.039Z,10.90
2022-11-26T06:53:25.427Z,11.65
2022-11-26T06:54:28.898Z,11.27
2022-11-26T06:55:32.582Z,12.57
2022-11-26T06:56:38.491Z,9.73
2022-11-26T06:57:42.143Z,13.13
2022-11-26T06:58:46.987Z,10.88
2022-11-26T06:59:52.493Z,11.07
2022-11-26T07:00:57.183Z,9.70
2022-11-26T07:02:00.918Z,11.93
2022-11-26T07:03:04.594Z,12.85
2022-11-26T07:04:13.378Z,10.75
2022-11-26T07:05:17.512Z,10.80
2022-11-26T07:06:28.250Z,11.75
2022-11-26T07:07:32.050Z,14.10
2022-11-26T07:08:35.563Z,11.57
2022-11-26T07:09:41.006Z,9.63
2022-11-26T07:10:48.800Z,11.15
2022-11-26T07:11:52.806Z,12.88
2022-11-26T07:12:56.278Z,10.45
2022-11-26T07:14:01.567Z,11.25
2022-11-26T07:15:12.017Z,10.70
2022-11-26T07:16:16.335Z,9.38
2022-11-26T07:17:20.289Z,11.85
2022-11-26T07:18:24.039Z,11.07
2022-11-26T07:19:27.684Z,10.95
2022-11-26T07:20:31.196Z,11.82
2022-11-26T07:21:34.770Z,11.55
2022-11-26T07:22:38.805Z,11.88
2022-11-26T07:23:42.634Z,12.20
2022-11-26T07:24:46.231Z,10.73
2022-11-26T07:25:50.318Z,9.98
2022-11-26T07:26:54.243Z,10.15
2022-11-26T07:27:58.369Z,9.35
2022-11-26T07:29:01.803Z,10.45
2022-11-26T07:30:10.250Z,11.07
2022-11-26T07:31:18.124Z,10.30
2022-11-26T07:32:21.866Z,9.98
2022-11-26T07:33:27.161Z,10.00
2022-11-26T07:34:31.670Z,10.85
2022-11-26T07:35:35.010Z,10.05
2022-11-26T07:36:43.154Z,10.77
2022-11-26T07:37:46.816Z,10.48
2022-11-26T07:38:54.431Z,10.32
2022-11-26T07:39:58.558Z,10.02
2022-11-26T07:41:13.616Z,10.77
2022-11-26T07:42:17.956Z,10.75
2022-11-26T07:43:22.336Z,10.88
2022-11-26T07:44:25.967Z,11.27
2022-11-26T07:45:29.854Z,11.13
2022-11-26T07:46:33.544Z,9.65
2022-11-26T07:47:37.153Z,10.55
2022-11-26T07:48:41.225Z,10.18
2022-11-26T07:49:44.851Z,9.57
2022-11-26T07:50:49.229Z,9.43
2022-11-26T07:51:52.730Z,9.05
2022-11-26T07:52:56.360Z,9.23
2022-11-26T07:54:09.401Z,10.57
2022-11-26T07:55:14.938Z,8.35
2022-11-26T07:56:19.755Z,9.75
2022-11-26T07:57:23.482Z,10.63
2022-11-26T07:58:27.355Z,9.77
2022-11-26T07:59:31.137Z,8.23
2022-11-26T08:00:35.495Z,9.50
2022-11-26T08:01:39.491Z,10.45
2022-11-26T08:02:46.619Z,9.93
2022-11-26T08:03:51.906Z,10.70
2022-11-26T08:04:55.345Z,11.93
2022-11-26T08:05:58.710Z,10.63
2022-11-26T08:07:02.470Z,9.73
2022-11-26T08:08:09.865Z,10.32
2022-11-26T08:09:13.313Z,10.23
2022-11-26T08:10:17.576Z,8.55
2022-11-26T08:11:25.008Z,8.90
2022-11-26T08:12:28.417Z,8.40
2022-11-26T08:13:32.030Z,8.90
2022-11-26T08:14:35.673Z,9.45
2022-11-26T08:15:39.247Z,9.63
2022-11-26T08:16:42.909Z,10.80
2022-11-26T08:17:46.323Z,9.57
2022-11-26T08:18:58.107Z,9.93
2022-11-26T08:20:01.756Z,10.10
2022-11-26T08:21:09.484Z,9.77
2022-11-26T08:22:13.622Z,9.23
2022-11-26T08:23:17.242Z,9.45
2022-11-26T08:24:21.269Z,9.95
2022-11-26T08:25:24.980Z,9.23
2022-11-26T08:26:35.881Z,8.48
2022-11-26T08:27:42.016Z,9.30
2022-11-26T08:28:47.341Z,7.80
2022-11-26T08:29:50.719Z,9.07
2022-11-26T08:31:03.490Z,9.85
2022-11-26T08:32:10.034Z,8.25
2022-11-26T08:33:15.476Z,8.18
2022-11-26T08:34:19.574Z,9.23
2022-11-26T08:35:38.690Z,8.98
2022-11-26T08:36:46.871Z,9.02
2022-11-26T08:37:51.185Z,8.27
2022-11-26T08:38:55.068Z,7.03
2022-11-26T08:39:58.695Z,8.57
2022-11-26T08:41:11.869Z,7.47
2022-11-26T08:42:16.438Z,7.53
2022-11-26T08:43:34.664Z,7.90
2022-11-26T08:44:47.343Z,8.57
2022-11-26T08:45:59.960Z,9.13
2022-11-26T08:47:04.068Z,6.93
2022-11-26T08:48:12.651Z,8.85
2022-11-26T08:49:17.338Z,8.55
2022-11-26T08:50:20.932Z,9.13
2022-11-26T08:51:25.602Z,9.10
2022-11-26T08:52:29.483Z,8.02
2022-11-26T08:53:35.848Z,7.00
2022-11-26T08:54:44.617Z,7.30
2022-11-26T08:56:00.147Z,8.13
2022-11-26T08:57:12.028Z,8.15
2022-11-26T08:58:15.615Z,8.55
2022-11-26T08:59:20.769Z,8.85
2022-11-26T09:00:25.046Z,8.82
2022-11-26T09:01:32.859Z,7.68
2022-11-26T09:02:36.880Z,10.27
2022-11-26T09:03:40.444Z,7.53
2022-11-26T09:04:44.034Z,8.40
2022-11-26T09:05:47.542Z,9.00
2022-11-26T09:06:51.027Z,8.60
2022-11-26T09:07:55.201Z,7.85
2022-11-26T09:09:13.386Z,7.47
2022-11-26T09:10:17.740Z,7.68
2022-11-26T09:11:21.673Z,6.90
2022-11-26T09:12:26.360Z,8.63
2022-11-26T09:13:30.321Z,8.18
2022-11-26T09:14:41.514Z,9.38
2022-11-26T09:15:45.330Z,8.45
2022-11-26T09:16:49.056Z,5.35
2022-11-26T09:17:52.471Z,7.60
2022-11-26T09:19:01.111Z,8.65
2022-11-26T09:20:09.492Z,7.88
2022-11-26T09:21:12.922Z,7.70
2022-11-26T09:22:16.437Z,7.65
2022-11-26T09:23:20.344Z,5.60
2022-11-26T09:24:27.963Z,7.93
2022-11-26T09:25:31.498Z,6.00
2022-11-26T09:26:35.299Z,7.03
2022-11-26T09:27:39.346Z,8.15
2022-11-26T09:28:42.832Z,9.88
2022-11-26T09:29:46.810Z,10.68
2022-11-26T09:30:50.293Z,7.95
2022-11-26T09:32:23.396Z,7.57
2022-11-26T09:33:17.314Z,8.10
2022-11-26T09:34:21.102Z,7.63
2022-11-26T09:35:25.986Z,10.02
2022-11-26T09:36:30.057Z,8.57
2022-11-26T09:37:33.679Z,9.10
2022-11-26T09:38:37.789Z,8.73
2022-11-26T09:39:41.650Z,7.93
2022-11-26T09:41:18.717Z,10.27
2022-11-26T09:42:57.760Z,9.48
2022-11-26T09:44:37.170Z,10.13
2022-11-26T09:45:52.894Z,8.45
2022-11-26T09:47:20.160Z,8.20
2022-11-26T09:48:28.682Z,5.97
2022-11-26T09:49:50.365Z,7.53
2022-11-26T09:51:13.343Z,8.00
2022-11-26T09:52:22.012Z,7.20
2022-11-26T09:53:32.624Z,8.25
2022-11-26T09:54:40.028Z,7.43
2022-11-26T09:55:49.339Z,10.07
2022-11-26T09:57:18.421Z,9.40
2022-11-26T09:58:42.528Z,7.72
2022-11-26T09:59:49.554Z,7.72
2022-11-26T10:00:56.243Z,8.75
2022-11-26T10:02:00.307Z,7.97
2022-11-26T10:03:23.857Z,10.68
2022-11-26T10:04:38.420Z,6.97
2022-11-26T10:06:35.834Z,8.88
2022-11-26T10:08:20.605Z,8.88
2022-11-26T10:09:52.975Z,7.43
2022-11-26T10:11:23.840Z,6.97
2022-11-26T10:13:17.863Z,8.00
2022-11-26T10:15:03.288Z,8.18
2022-11-26T10:16:38.533Z,7.03
2022-11-26T10:18:31.313Z,9.20
2022-11-26T10:19:58.607Z,6.22
2022-11-26T10:21:37.717Z,6.50
2022-11-26T10:22:57.530Z,8.05
2022-11-26T10:24:30.075Z,6.80
2022-11-26T10:25:46.339Z,9.55
2022-11-26T10:26:51.856Z,7.10
2022-11-26T10:27:58.324Z,6.72
2022-11-26T10:29:41.172Z,8.00
2022-11-26T10:30:46.579Z,7.93
2022-11-26T10:32:02.115Z,7.60
2022-11-26T10:33:11.999Z,7.97
2022-11-26T10:34:39.918Z,7.95
2022-11-26T10:35:47.293Z,7.85
2022-11-26T10:36:52.276Z,8.82
2022-11-26T10:37:59.635Z,6.43
2022-11-26T10:39:03.407Z,6.28
2022-11-26T10:40:24.200Z,6.90
2022-11-26T10:41:34.173Z,7.55
2022-11-26T10:42:47.549Z,7.57
2022-11-26T10:43:50.977Z,8.68
2022-11-26T10:44:55.001Z,9.18
2022-11-26T10:45:58.554Z,7.70
2022-11-26T10:47:30.852Z,8.18
2022-11-26T10:48:35.339Z,7.90
2022-11-26T10:49:38.848Z,7.28
2022-11-26T10:50:48.032Z,7.88
2022-11-26T10:51:58.947Z,7.95
2022-11-26T10:53:11.335Z,9.27
2022-11-26T10:54:37.652Z,6.95
2022-11-26T10:55:43.953Z,7.68
2022-11-26T10:56:53.207Z,6.93
2022-11-26T10:58:06.591Z,6.28
2022-11-26T10:59:34.687Z,7.07
2022-11-26T11:00:50.235Z,7.95
2022-11-26T11:02:00.935Z,7.68
2022-11-26T11:03:16.190Z,8.98
2022-11-26T11:04:45.808Z,6.38
2022-11-26T11:05:50.488Z,7.68
2022-11-26T11:06:54.574Z,6.97
2022-11-26T11:08:01.131Z,6.68
2022-11-26T11:09:38.003Z,4.97
2022-11-26T11:11:26.627Z,6.00
2022-11-26T11:12:30.391Z,6.15
2022-11-26T11:13:43.720Z,5.95
2022-11-26T11:14:49.466Z,7.07
2022-11-26T11:16:03.025Z,7.45
2022-11-26T11:17:33.309Z,4.80
2022-11-26T11:18:38.041Z,6.78
2022-11-26T11:19:43.683Z,7.10
2022-11-26T11:20:58.324Z,8.05
2022-11-26T11:22:04.720Z,6.13
2022-11-26T11:23:11.554Z,7.18
2022-11-26T11:24:29.073Z,6.53
2022-11-26T11:25:36.332Z,8.25
2022-11-26T11:26:47.952Z,6.70
2022-11-26T11:27:54.217Z,5.70
2022-11-26T11:28:58.721Z,6.95
2022-11-26T11:30:03.444Z,7.07
2022-11-26T11:31:40.860Z,6.63
2022-11-26T11:32:44.868Z,4.68
2022-11-26T11:33:51.454Z,5.07
2022-11-26T11:34:54.975Z,6.03
2022-11-26T11:36:06.748Z,6.53
2022-11-26T11:37:19.220Z,7.15
2022-11-26T11:38:27.360Z,5.38
2022-11-26T11:39:35.785Z,6.10
2022-11-26T11:40:42.490Z,6.25
2022-11-26T11:41:49.365Z,7.32
2022-11-26T11:43:07.212Z,7.18
2022-11-26T11:44:43.142Z,6.95
2022-11-26T11:46:48.064Z,5.85
2022-11-26T11:47:56.642Z,7.22
2022-11-26T11:49:41.499Z,7.55
2022-11-26T11:51:38.350Z,5.63
2022-11-26T11:53:23.205Z,9.35
2022-11-26T11:54:57.061Z,7.57
2022-11-26T11:56:33.973Z,6.97
2022-11-26T11:58:03.990Z,6.90
2022-11-26T11:59:59.016Z,7.85
2022-11-26T12:01:42.745Z,7.63
2022-11-26T12:03:33.583Z,6.95
2022-11-26T12:05:25.553Z,7.43
2022-11-26T12:06:29.410Z,8.15
2022-11-26T12:07:53.293Z,8.13
2022-11-26T12:09:29.546Z,8.00
2022-11-26T12:10:57.938Z,7.55
2022-11-26T12:12:22.103Z,5.43
2022-11-26T12:13:29.314Z,6.25
2022-11-26T12:14:41.757Z,6.47
2022-11-26T12:16:03.270Z,7.00
2022-11-26T12:17:17.751Z,6.45
2022-11-26T12:18:40.342Z,5.30
2022-11-26T12:19:59.198Z,6.85
2022-11-26T12:21:15.735Z,6.95
2022-11-26T12:22:37.273Z,7.22
2022-11-26T12:23:52.777Z,6.65
2022-11-26T12:25:04.943Z,7.43
2022-11-26T12:26:19.809Z,6.38
2022-11-26T12:27:43.659Z,7.47
2022-11-26T12:29:25.883Z,6.70
2022-11-26T12:30:50.859Z,8.20
2022-11-26T12:32:21.936Z,7.47
2022-11-26T12:34:07.118Z,7.40
2022-11-26T12:35:33.011Z,7.05
2022-11-26T12:36:51.228Z,7.22
2022-11-26T12:38:04.692Z,5.30
2022-11-26T12:39:28.525Z,7.30
2022-11-26T12:40:54.642Z,6.65
2022-11-26T12:42:20.343Z,7.10
2022-11-26T12:43:50.608Z,7.13
2022-11-26T12:45:13.329Z,5.75
2022-11-26T12:46:51.997Z,6.82
2022-11-26T12:48:15.664Z,6.40
2022-11-26T12:49:53.540Z,6.47
2022-11-26T12:51:30.881Z,7.50
2022-11-26T12:52:55.665Z,5.97
2022-11-26T12:54:26.468Z,6.75
2022-11-26T12:56:01.440Z,7.25
2022-11-26T12:57:25.208Z,5.88
2022-11-26T12:59:03.543Z,7.13
2022-11-26T13:00:32.774Z,6.97
2022-11-26T13:01:43.290Z,7.30
2022-11-26T13:02:51.796Z,7.63
2022-11-26T13:04:14.717Z,5.97
2022-11-26T13:05:30.713Z,7.18
2022-11-26T13:06:53.611Z,4.60
2022-11-26T13:08:25.836Z,6.50
2022-11-26T13:09:53.873Z,6.07
2022-11-26T13:11:27.166Z,6.65
2022-11-26T13:12:48.206Z,7.32
2022-11-26T13:14:16.935Z,5.53
2022-11-26T13:15:26.429Z,5.90
2022-11-26T13:16:42.461Z,6.55
2022-11-26T13:17:51.579Z,4.78
2022-11-26T13:19:06.459Z,6.13
2022-11-26T13:20:42.116Z,6.93
2022-11-26T13:22:24.119Z,6.70
2022-11-26T13:23:50.828Z,6.35
2022-11-26T13:25:20.906Z,6.53
2022-11-26T13:27:12.090Z,6.95
2022-11-26T13:29:10.062Z,6.10
2022-11-26T13:30:37.685Z,6.38
2022-11-26T13:31:56.820Z,6.05
2022-11-26T13:33:50.027Z,6.88
2022-11-26T13:35:51.556Z,5.57
2022-11-26T13:37:16.433Z,8.85
2022-11-26T13:39:20.370Z,6.88
2022-11-26T13:40:45.926Z,8.73
2022-11-26T13:42:37.698Z,6.47
2022-11-26T13:44:14.904Z,7.03
2022-11-26T13:45:56.071Z,6.93
2022-11-26T13:47:16.893Z,6.82
2022-11-26T13:48:48.986Z,7.50
2022-11-26T13:50:29.575Z,6.35
2022-11-26T13:51:41.932Z,7.38
2022-11-26T13:53:03.965Z,7.18
2022-11-26T13:54:35.490Z,8.25
2022-11-26T13:56:00.480Z,5.95
2022-11-26T13:57:16.328Z,7.50
2022-11-26T13:58:46.030Z,7.22
2022-11-26T13:59:56.303Z,7.88
2022-11-26T14:01:28.552Z,6.45
2022-11-26T14:02:36.719Z,7.38
2022-11-26T14:03:49.330Z,6.72
2022-11-26T14:04:59.578Z,7.63
2022-11-26T14:06:09.568Z,6.55
2022-11-26T14:07:20.551Z,6.18
2022-11-26T14:08:44.981Z,6.43
2022-11-26T14:09:53.415Z,5.47
2022-11-26T14:10:57.091Z,6.32
2022-11-26T14:12:00.608Z,6.50
2022-11-26T14:13:03.975Z,5.85
2022-11-26T14:14:26.814Z,7.00
2022-11-26T14:15:43.088Z,6.95
2022-11-26T14:17:02.691Z,5.32
2022-11-26T14:18:12.907Z,5.95
2022-11-26T14:19:16.884Z,6.60
2022-11-26T14:20:23.924Z,7.55
2022-11-26T14:21:30.686Z,6.85
2022-11-26T14:22:37.851Z,6.90
2022-11-26T14:23:44.425Z,6.97
2022-11-26T14:24:50.796Z,6.25
2022-11-26T14:25:54.415Z,7.35
2022-11-26T14:26:58.197Z,7.47
2022-11-26T14:28:04.293Z,6.63
2022-11-26T14:29:17.414Z,5.63
2022-11-26T14:30:25.805Z,7.18
2022-11-26T14:31:32.995Z,5.53
2022-11-26T14:32:51.600Z,5.65
2022-11-26T14:34:03.531Z,7.25
2022-11-26T14:35:34.373Z,7.55
2022-11-26T14:36:54.187Z,5.47
2022-11-26T14:37:59.852Z,5.65
2022-11-26T14:39:11.200Z,4.75
2022-11-26T14:40:27.192Z,5.20
2022-11-26T14:41:51.234Z,7.10
2022-11-26T14:43:16.386Z,6.30
2022-11-26T14:44:21.636Z,5.82
2022-11-26T14:45:28.101Z,5.70
2022-11-26T14:46:32.466Z,4.45
2022-11-26T14:47:36.874Z,6.30
2022-11-26T14:48:48.056Z,7.43
2022-11-26T14:50:12.785Z,6.55
2022-11-26T14:51:27.517Z,8.05
2022-11-26T14:52:37.364Z,5.50
2022-11-26T14:53:48.833Z,5.82
2022-11-26T14:54:57.868Z,6.00
2022-11-26T14:56:03.341Z,6.20
2022-11-26T14:57:24.580Z,6.03
2022-11-26T14:58:36.846Z,5.45
2022-11-26T15:00:05.067Z,6.78
2022-11-26T15:01:16.017Z,5.30
2022-11-26T15:02:26.294Z,6.63
2022-11-26T15:03:29.915Z,5.18
2022-11-26T15:04:34.989Z,5.20
2022-11-26T15:05:45.332Z,6.10
2022-11-26T15:06:49.328Z,7.22
2022-11-26T15:08:25.443Z,6.13
2022-11-26T15:09:29.299Z,7.30
2022-11-26T15:11:17.361Z,7.43
2022-11-26T15:12:24.977Z,6.05
2022-11-26T15:13:38.116Z,7.07
2022-11-26T15:14:55.098Z,7.07
2022-11-26T15:16:02.912Z,5.63
2022-11-26T15:17:14.481Z,7.22
2022-11-26T15:18:24.249Z,6.28
2022-11-26T15:19:37.186Z,5.32
2022-11-26T15:20:42.750Z,5.85
2022-11-26T15:21:47.609Z,4.93
2022-11-26T15:23:07.639Z,5.40
2022-11-26T15:24:17.147Z,7.18
2022-11-26T15:25:33.214Z,6.93
2022-11-26T15:26:38.372Z,5.82
2022-11-26T15:28:10.881Z,7.63
2022-11-26T15:29:34.966Z,6.90
2022-11-26T15:30:39.293Z,7.93
2022-11-26T15:31:43.543Z,6.80
2022-11-26T15:32:47.257Z,6.80
2022-11-26T15:33:52.191Z,7.88
2022-11-26T15:35:01.178Z,7.70